Klein Mühlingen Airport EDOM

Flugplatz Daten

Name: Klein Mühlingen Airport

Ident: EDOM

Lat: 51,94749832

Long: 11,76972198

Platzhöhe: 171 ft

IataCode:

City: Calbe

Metar

2014/05/22 23:53
PAAQ 222353Z 08005KT 10SM FU BKN090 BKN120 17/M03 A2970 RMK AO2 SLP058 SMOKE MORE PREDOMINANT IN KNIK GLACIER VALLEY T01671028 10172 20111 58012

Taf

Gewünschte Webcam nicht vorhanden? Dann fügen Sie eine hinzu. Sie wird dann so schnell wie möglich freigeschaltet
Url: Title: